RJFR(METAR)
08/24 02:00
METAR RJFR 231700Z 26004KT 9999 FEW015 SCT030 BKN130 27/24 Q1009 RMK
1CU015 3CU030 7AC130 A2981=
戻る
トップページへ戻る
IMOC Co,.Ltd.